sensor_id;sensor_type;location;lat;lon;timestamp;pressure;altitude;pressure_sealevel;temperature;humidity
20111;BME280;10216;42.658;23.248;2022-09-01T00:00:59;93555.69;;;15.97;95.63
20111;BME280;10216;42.658;23.248;2022-09-01T00:03:24;93563.44;;;15.97;95.29
20111;BME280;10216;42.658;23.248;2022-09-01T00:05:50;93569.44;;;15.97;95.34
20111;BME280;10216;42.658;23.248;2022-09-01T00:08:20;93566.22;;;15.95;95.61
20111;BME280;10216;42.658;23.248;2022-09-01T00:10:46;93564.44;;;15.96;95.64
20111;BME280;10216;42.658;23.248;2022-09-01T00:13:11;93551.69;;;15.94;95.29
20111;BME280;10216;42.658;23.248;2022-09-01T00:15:37;93553.09;;;15.90;96.03
20111;BME280;10216;42.658;23.248;2022-09-01T00:18:03;93549.72;;;15.90;95.95
20111;BME280;10216;42.658;23.248;2022-09-01T00:20:28;93547.31;;;15.88;95.88
20111;BME280;10216;42.658;23.248;2022-09-01T00:22:54;93550.72;;;15.82;95.97
20111;BME280;10216;42.658;23.248;2022-09-01T00:25:20;93555.69;;;15.84;96.79
20111;BME280;10216;42.658;23.248;2022-09-01T00:27:47;93555.88;;;15.82;97.39
20111;BME280;10216;42.658;23.248;2022-09-01T00:30:13;93549.50;;;15.78;97.50
20111;BME280;10216;42.658;23.248;2022-09-01T00:32:38;93553.69;;;15.79;97.76
20111;BME280;10216;42.658;23.248;2022-09-01T00:35:04;93556.69;;;15.76;97.89
20111;BME280;10216;42.658;23.248;2022-09-01T00:37:30;93553.88;;;15.78;97.64
20111;BME280;10216;42.658;23.248;2022-09-01T00:39:56;93557.69;;;15.75;97.30
20111;BME280;10216;42.658;23.248;2022-09-01T00:42:22;93560.66;;;15.72;97.40
20111;BME280;10216;42.658;23.248;2022-09-01T00:44:47;93557.47;;;15.70;99.06
20111;BME280;10216;42.658;23.248;2022-09-01T00:47:13;93557.47;;;15.70;98.15
20111;BME280;10216;42.658;23.248;2022-09-01T00:49:42;93560.84;;;15.71;97.60
20111;BME280;10216;42.658;23.248;2022-09-01T00:52:33;93560.28;;;15.69;98.17
20111;BME280;10216;42.658;23.248;2022-09-01T00:55:07;93570.00;;;15.67;98.06
20111;BME280;10216;42.658;23.248;2022-09-01T00:57:34;93563.44;;;15.64;98.00
20111;BME280;10216;42.658;23.248;2022-09-01T01:00:11;93559.84;;;15.65;98.23
20111;BME280;10216;42.658;23.248;2022-09-01T01:02:39;93568.03;;;15.62;98.99
20111;BME280;10216;42.658;23.248;2022-09-01T01:05:06;93571.00;;;15.59;99.69
20111;BME280;10216;42.658;23.248;2022-09-01T01:07:33;93568.81;;;15.56;99.61
20111;BME280;10216;42.658;23.248;2022-09-01T01:10:04;93567.41;;;15.53;100.00
20111;BME280;10216;42.658;23.248;2022-09-01T01:12:30;93568.38;;;15.52;99.73
20111;BME280;10216;42.658;23.248;2022-09-01T01:14:57;93564.38;;;15.50;99.61
20111;BME280;10216;42.658;23.248;2022-09-01T01:17:23;93556.22;;;15.46;99.63
20111;BME280;10216;42.658;23.248;2022-09-01T01:19:54;93565.78;;;15.46;100.00
20111;BME280;10216;42.658;23.248;2022-09-01T01:25:36;93562.19;;;15.40;100.00
20111;BME280;10216;42.658;23.248;2022-09-01T01:28:05;93566.94;;;15.37;100.00
20111;BME280;10216;42.658;23.248;2022-09-01T01:30:31;93562.38;;;15.32;99.99
20111;BME280;10216;42.658;23.248;2022-09-01T01:33:02;93558.00;;;15.26;100.00
20111;BME280;10216;42.658;23.248;2022-09-01T01:35:28;93555.78;;;15.23;100.00
20111;BME280;10216;42.658;23.248;2022-09-01T01:37:56;93563.72;;;15.21;100.00
20111;BME280;10216;42.658;23.248;2022-09-01T01:40:21;93560.56;;;15.19;100.00
20111;BME280;10216;42.658;23.248;2022-09-01T01:42:51;93557.19;;;15.19;100.00
20111;BME280;10216;42.658;23.248;2022-09-01T01:45:20;93564.13;;;15.18;100.00
20111;BME280;10216;42.658;23.248;2022-09-01T01:47:48;93573.88;;;15.16;100.00
20111;BME280;10216;42.658;23.248;2022-09-01T01:50:29;93580.03;;;15.15;100.00
20111;BME280;10216;42.658;23.248;2022-09-01T01:53:01;93583.59;;;15.14;100.00
20111;BME280;10216;42.658;23.248;2022-09-01T01:55:28;93582.63;;;15.15;100.00
20111;BME280;10216;42.658;23.248;2022-09-01T01:57:55;93586.19;;;15.14;100.00
20111;BME280;10216;42.658;23.248;2022-09-01T02:00:24;93590.78;;;15.12;100.00
20111;BME280;10216;42.658;23.248;2022-09-01T02:02:52;93586.78;;;15.10;100.00
20111;BME280;10216;42.658;23.248;2022-09-01T02:05:23;93595.72;;;15.07;100.00
20111;BME280;10216;42.658;23.248;2022-09-01T02:07:51;93592.75;;;15.04;100.00
20111;BME280;10216;42.658;23.248;2022-09-01T02:10:25;93596.13;;;15.04;100.00
20111;BME280;10216;42.658;23.248;2022-09-01T02:12:50;93599.28;;;15.06;100.00
20111;BME280;10216;42.658;23.248;2022-09-01T02:15:16;93601.69;;;15.08;100.00
20111;BME280;10216;42.658;23.248;2022-09-01T02:17:42;93600.31;;;15.05;100.00
20111;BME280;10216;42.658;23.248;2022-09-01T02:20:10;93589.16;;;15.05;100.00
20111;BME280;10216;42.658;23.248;2022-09-01T02:22:35;93598.72;;;15.04;100.00
20111;BME280;10216;42.658;23.248;2022-09-01T02:25:05;93597.09;;;15.03;100.00
20111;BME280;10216;42.658;23.248;2022-09-01T02:27:32;93599.69;;;15.03;100.00
20111;BME280;10216;42.658;23.248;2022-09-01T02:29:59;93585.16;;;15.02;100.00
20111;BME280;10216;42.658;23.248;2022-09-01T02:32:26;93584.56;;;15.00;100.00
20111;BME280;10216;42.658;23.248;2022-09-01T02:34:51;93576.63;;;15.02;100.00
20111;BME280;10216;42.658;23.248;2022-09-01T02:37:21;93582.41;;;15.04;100.00
20111;BME280;10216;42.658;23.248;2022-09-01T02:39:53;93583.78;;;15.06;100.00
20111;BME280;10216;42.658;23.248;2022-09-01T02:42:21;93577.63;;;15.07;100.00
20111;BME280;10216;42.658;23.248;2022-09-01T02:44:54;93570.28;;;15.04;100.00
20111;BME280;10216;42.658;23.248;2022-09-01T02:47:23;93565.69;;;15.06;100.00
20111;BME280;10216;42.658;23.248;2022-09-01T02:49:51;93564.88;;;15.06;100.00
20111;BME280;10216;42.658;23.248;2022-09-01T02:52:17;93573.44;;;15.06;100.00
20111;BME280;10216;42.658;23.248;2022-09-01T02:54:46;93560.91;;;15.03;100.00
20111;BME280;10216;42.658;23.248;2022-09-01T02:57:13;93572.84;;;15.04;100.00
20111;BME280;10216;42.658;23.248;2022-09-01T02:59:39;93572.06;;;15.04;100.00
20111;BME280;10216;42.658;23.248;2022-09-01T03:02:06;93567.66;;;14.98;100.00
20111;BME280;10216;42.658;23.248;2022-09-01T03:04:32;93569.44;;;14.97;100.00
20111;BME280;10216;42.658;23.248;2022-09-01T03:07:00;93572.63;;;14.99;100.00
20111;BME280;10216;42.658;23.248;2022-09-01T03:09:26;93574.63;;;14.97;100.00
20111;BME280;10216;42.658;23.248;2022-09-01T03:11:52;93579.78;;;14.97;100.00
20111;BME280;10216;42.658;23.248;2022-09-01T03:14:20;93574.00;;;14.95;100.00
20111;BME280;10216;42.658;23.248;2022-09-01T03:16:46;93581.94;;;14.94;100.00
20111;BME280;10216;42.658;23.248;2022-09-01T03:19:11;93570.41;;;14.90;100.00
20111;BME280;10216;42.658;23.248;2022-09-01T03:21:38;93571.97;;;14.84;100.00
20111;BME280;10216;42.658;23.248;2022-09-01T03:24:06;93572.38;;;14.81;100.00
20111;BME280;10216;42.658;23.248;2022-09-01T03:26:33;93581.09;;;14.80;100.00
20111;BME280;10216;42.658;23.248;2022-09-01T03:28:59;93578.53;;;14.80;100.00
20111;BME280;10216;42.658;23.248;2022-09-01T03:31:25;93571.75;;;14.79;100.00
20111;BME280;10216;42.658;23.248;2022-09-01T03:33:56;93581.28;;;14.78;100.00
20111;BME280;10216;42.658;23.248;2022-09-01T03:36:23;93582.28;;;14.77;100.00
20111;BME280;10216;42.658;23.248;2022-09-01T03:38:50;93580.50;;;14.78;100.00
20111;BME280;10216;42.658;23.248;2022-09-01T03:41:19;93573.53;;;14.78;100.00
20111;BME280;10216;42.658;23.248;2022-09-01T03:43:46;93577.91;;;14.78;100.00
20111;BME280;10216;42.658;23.248;2022-09-01T03:46:12;93572.56;;;14.79;100.00
20111;BME280;10216;42.658;23.248;2022-09-01T03:48:44;93568.38;;;14.78;100.00
20111;BME280;10216;42.658;23.248;2022-09-01T03:51:11;93572.56;;;14.79;100.00
20111;BME280;10216;42.658;23.248;2022-09-01T03:53:38;93571.56;;;14.80;100.00
20111;BME280;10216;42.658;23.248;2022-09-01T03:56:05;93570.75;;;14.80;100.00
20111;BME280;10216;42.658;23.248;2022-09-01T03:58:31;93576.72;;;14.80;100.00
20111;BME280;10216;42.658;23.248;2022-09-01T04:00:58;93578.69;;;14.78;100.00
20111;BME280;10216;42.658;23.248;2022-09-01T04:03:29;93581.09;;;14.80;100.00
20111;BME280;10216;42.658;23.248;2022-09-01T04:05:57;93583.88;;;14.78;100.00
20111;BME280;10216;42.658;23.248;2022-09-01T04:08:23;93585.47;;;14.79;100.00
20111;BME280;10216;42.658;23.248;2022-09-01T04:10:57;93583.88;;;14.78;100.00
20111;BME280;10216;42.658;23.248;2022-09-01T04:13:32;93582.69;;;14.81;100.00
20111;BME280;10216;42.658;23.248;2022-09-01T04:15:58;93584.66;;;14.79;100.00
20111;BME280;10216;42.658;23.248;2022-09-01T04:18:24;93577.13;;;14.84;100.00
20111;BME280;10216;42.658;23.248;2022-09-01T04:21:00;93586.13;;;14.88;100.00
20111;BME280;10216;42.658;23.248;2022-09-01T04:23:31;93576.56;;;14.89;100.00
20111;BME280;10216;42.658;23.248;2022-09-01T04:26:05;93575.19;;;14.93;100.00
20111;BME280;10216;42.658;23.248;2022-09-01T04:28:46;93580.78;;;14.96;100.00
20111;BME280;10216;42.658;23.248;2022-09-01T04:31:21;93579.38;;;15.00;100.00
20111;BME280;10216;42.658;23.248;2022-09-01T04:33:49;93573.84;;;15.03;100.00
20111;BME280;10216;42.658;23.248;2022-09-01T04:36:25;93574.22;;;15.07;100.00
20111;BME280;10216;42.658;23.248;2022-09-01T04:38:57;93568.50;;;15.11;100.00
20111;BME280;10216;42.658;23.248;2022-09-01T04:41:30;93575.66;;;15.16;100.00
20111;BME280;10216;42.658;23.248;2022-09-01T04:43:58;93577.47;;;15.22;100.00
20111;BME280;10216;42.658;23.248;2022-09-01T04:46:27;93573.69;;;15.24;100.00
20111;BME280;10216;42.658;23.248;2022-09-01T04:48:55;93570.13;;;15.32;100.00
20111;BME280;10216;42.658;23.248;2022-09-01T04:51:23;93571.34;;;15.43;100.00
20111;BME280;10216;42.658;23.248;2022-09-01T04:53:53;93575.94;;;15.47;100.00
20111;BME280;10216;42.658;23.248;2022-09-01T04:56:22;93577.75;;;15.53;100.00
20111;BME280;10216;42.658;23.248;2022-09-01T04:58:50;93578.75;;;15.59;100.00
20111;BME280;10216;42.658;23.248;2022-09-01T05:01:21;93578.97;;;15.64;100.00
20111;BME280;10216;42.658;23.248;2022-09-01T05:03:48;93579.75;;;15.71;100.00
20111;BME280;10216;42.658;23.248;2022-09-01T05:06:21;93573.81;;;15.77;100.00
20111;BME280;10216;42.658;23.248;2022-09-01T05:08:47;93573.81;;;15.84;100.00
20111;BME280;10216;42.658;23.248;2022-09-01T05:11:14;93572.59;;;15.86;100.00
20111;BME280;10216;42.658;23.248;2022-09-01T05:13:44;93566.44;;;15.94;100.00
20111;BME280;10216;42.658;23.248;2022-09-01T05:16:13;93567.03;;;16.02;100.00
20111;BME280;10216;42.658;23.248;2022-09-01T05:18:43;93561.22;;;16.14;100.00
20111;BME280;10216;42.658;23.248;2022-09-01T05:21:12;93566.19;;;16.22;100.00
20111;BME280;10216;42.658;23.248;2022-09-01T05:23:41;93572.16;;;16.29;100.00
20111;BME280;10216;42.658;23.248;2022-09-01T05:26:15;93566.97;;;16.35;100.00
20111;BME280;10216;42.658;23.248;2022-09-01T05:28:43;93568.56;;;16.43;100.00
20111;BME280;10216;42.658;23.248;2022-09-01T05:31:08;93571.34;;;16.55;100.00
20111;BME280;10216;42.658;23.248;2022-09-01T05:33:34;93570.13;;;16.51;100.00
20111;BME280;10216;42.658;23.248;2022-09-01T05:36:02;93566.16;;;16.61;100.00
20111;BME280;10216;42.658;23.248;2022-09-01T05:38:32;93570.91;;;16.64;100.00
20111;BME280;10216;42.658;23.248;2022-09-01T05:41:03;93572.47;;;16.78;99.93
20111;BME280;10216;42.658;23.248;2022-09-01T05:43:31;93571.69;;;16.71;98.99
20111;BME280;10216;42.658;23.248;2022-09-01T05:45:58;93574.06;;;16.79;98.53
20111;BME280;10216;42.658;23.248;2022-09-01T05:48:25;93569.25;;;16.90;98.30
20111;BME280;10216;42.658;23.248;2022-09-01T05:50:51;93581.41;;;16.96;97.07
20111;BME280;10216;42.658;23.248;2022-09-01T05:53:22;93577.19;;;16.95;96.64
20111;BME280;10216;42.658;23.248;2022-09-01T05:55:50;93575.75;;;17.12;96.34
20111;BME280;10216;42.658;23.248;2022-09-01T05:58:23;93577.66;;;17.23;95.83
20111;BME280;10216;42.658;23.248;2022-09-01T06:00:49;93571.25;;;17.32;94.75
20111;BME280;10216;42.658;23.248;2022-09-01T06:03:16;93570.59;;;17.37;93.94
20111;BME280;10216;42.658;23.248;2022-09-01T06:05:42;93566.97;;;17.44;94.01
20111;BME280;10216;42.658;23.248;2022-09-01T06:08:12;93572.31;;;17.56;93.76
20111;BME280;10216;42.658;23.248;2022-09-01T06:10:40;93564.31;;;17.64;93.83
20111;BME280;10216;42.658;23.248;2022-09-01T06:13:08;93561.28;;;17.67;93.42
20111;BME280;10216;42.658;23.248;2022-09-01T06:15:35;93566.16;;;17.82;92.00
20111;BME280;10216;42.658;23.248;2022-09-01T06:18:07;93560.69;;;17.90;91.22
20111;BME280;10216;42.658;23.248;2022-09-01T06:20:38;93567.03;;;18.01;90.83
20111;BME280;10216;42.658;23.248;2022-09-01T06:23:05;93557.88;;;18.16;90.64
20111;BME280;10216;42.658;23.248;2022-09-01T06:25:30;93561.38;;;18.28;90.08
20111;BME280;10216;42.658;23.248;2022-09-01T06:27:56;93567.94;;;18.31;89.49
20111;BME280;10216;42.658;23.248;2022-09-01T06:30:23;93571.84;;;18.40;88.14
20111;BME280;10216;42.658;23.248;2022-09-01T06:32:52;93562.72;;;18.56;87.42
20111;BME280;10216;42.658;23.248;2022-09-01T06:35:19;93566.66;;;18.65;87.38
20111;BME280;10216;42.658;23.248;2022-09-01T06:37:45;93560.72;;;18.76;87.17
20111;BME280;10216;42.658;23.248;2022-09-01T06:40:14;93557.16;;;18.89;87.12
20111;BME280;10216;42.658;23.248;2022-09-01T06:42:47;93554.47;;;18.95;85.22
20111;BME280;10216;42.658;23.248;2022-09-01T06:45:14;93560.47;;;19.14;84.84
20111;BME280;10216;42.658;23.248;2022-09-01T06:47:42;93566.06;;;19.29;84.55
20111;BME280;10216;42.658;23.248;2022-09-01T06:50:13;93559.09;;;19.41;83.80
20111;BME280;10216;42.658;23.248;2022-09-01T06:52:43;93564.34;;;19.53;83.64
20111;BME280;10216;42.658;23.248;2022-09-01T06:55:13;93559.41;;;19.52;81.57
20111;BME280;10216;42.658;23.248;2022-09-01T06:57:40;93558.22;;;19.47;82.83
20111;BME280;10216;42.658;23.248;2022-09-01T07:00:08;93564.66;;;19.45;83.23
20111;BME280;10216;42.658;23.248;2022-09-01T07:02:46;93563.50;;;19.59;82.64
20111;BME280;10216;42.658;23.248;2022-09-01T07:05:15;93559.22;;;19.76;81.98
20111;BME280;10216;42.658;23.248;2022-09-01T07:07:53;93561.28;;;19.86;80.85
20111;BME280;10216;42.658;23.248;2022-09-01T07:10:24;93560.50;;;19.97;80.91
20111;BME280;10216;42.658;23.248;2022-09-01T07:12:51;93565.63;;;20.15;80.25
20111;BME280;10216;42.658;23.248;2022-09-01T07:15:17;93564.88;;;20.38;80.02
20111;BME280;10216;42.658;23.248;2022-09-01T07:17:48;93568.25;;;20.50;79.49
20111;BME280;10216;42.658;23.248;2022-09-01T07:20:16;93565.75;;;20.55;78.34
20111;BME280;10216;42.658;23.248;2022-09-01T07:22:43;93573.56;;;20.79;77.71
20111;BME280;10216;42.658;23.248;2022-09-01T07:25:09;93566.16;;;20.99;77.21
20111;BME280;10216;42.658;23.248;2022-09-01T07:27:38;93566.97;;;20.88;76.49
20111;BME280;10216;42.658;23.248;2022-09-01T07:30:05;93570.34;;;21.00;76.93
20111;BME280;10216;42.658;23.248;2022-09-01T07:32:35;93567.22;;;21.26;76.77
20111;BME280;10216;42.658;23.248;2022-09-01T07:35:03;93570.50;;;21.33;74.64
20111;BME280;10216;42.658;23.248;2022-09-01T07:37:30;93565.88;;;21.52;74.47
20111;BME280;10216;42.658;23.248;2022-09-01T07:39:56;93570.31;;;21.52;74.86
20111;BME280;10216;42.658;23.248;2022-09-01T07:42:22;93562.25;;;21.70;74.21
20111;BME280;10216;42.658;23.248;2022-09-01T07:44:48;93564.28;;;21.51;73.49
20111;BME280;10216;42.658;23.248;2022-09-01T07:47:15;93565.91;;;21.69;73.45
20111;BME280;10216;42.658;23.248;2022-09-01T07:49:41;93565.97;;;22.02;72.82
20111;BME280;10216;42.658;23.248;2022-09-01T07:52:07;93573.75;;;22.31;71.89
20111;BME280;10216;42.658;23.248;2022-09-01T07:54:33;93577.84;;;22.43;70.83
20111;BME280;10216;42.658;23.248;2022-09-01T07:57:02;93581.31;;;22.66;70.97
20111;BME280;10216;42.658;23.248;2022-09-01T07:59:28;93573.19;;;22.84;70.03
20111;BME280;10216;42.658;23.248;2022-09-01T08:01:55;93569.88;;;22.88;70.24
20111;BME280;10216;42.658;23.248;2022-09-01T08:04:21;93569.13;;;23.15;69.78
20111;BME280;10216;42.658;23.248;2022-09-01T08:06:47;93579.84;;;23.13;68.39
20111;BME280;10216;42.658;23.248;2022-09-01T08:09:13;93572.97;;;23.29;68.25
20111;BME280;10216;42.658;23.248;2022-09-01T08:11:39;93572.50;;;23.54;67.09
20111;BME280;10216;42.658;23.248;2022-09-01T08:14:04;93578.69;;;23.69;66.27
20111;BME280;10216;42.658;23.248;2022-09-01T08:16:30;93576.97;;;23.85;66.29
20111;BME280;10216;42.658;23.248;2022-09-01T08:18:56;93567.47;;;24.06;66.02
20111;BME280;10216;42.658;23.248;2022-09-01T08:21:23;93577.16;;;24.32;64.21
20111;BME280;10216;42.658;23.248;2022-09-01T08:23:50;93573.94;;;24.25;63.78
20111;BME280;10216;42.658;23.248;2022-09-01T08:26:18;93571.25;;;24.57;63.07
20111;BME280;10216;42.658;23.248;2022-09-01T08:28:44;93571.34;;;24.67;62.06
20111;BME280;10216;42.658;23.248;2022-09-01T08:31:12;93561.69;;;24.78;62.56
20111;BME280;10216;42.658;23.248;2022-09-01T08:33:39;93567.09;;;25.03;63.04
20111;BME280;10216;42.658;23.248;2022-09-01T08:36:10;93568.69;;;25.09;60.74
20111;BME280;10216;42.658;23.248;2022-09-01T08:38:36;93561.91;;;25.23;60.41
20111;BME280;10216;42.658;23.248;2022-09-01T08:41:02;93569.84;;;25.44;60.22
20111;BME280;10216;42.658;23.248;2022-09-01T08:46:18;93559.06;;;25.35;58.52
20111;BME280;10216;42.658;23.248;2022-09-01T08:48:51;93553.84;;;24.83;61.08
20111;BME280;10216;42.658;23.248;2022-09-01T08:51:39;93548.28;;;25.26;59.34
20111;BME280;10216;42.658;23.248;2022-09-01T08:54:23;93545.53;;;26.24;58.99
20111;BME280;10216;42.658;23.248;2022-09-01T08:56:57;93539.91;;;26.97;55.72
20111;BME280;10216;42.658;23.248;2022-09-01T08:59:25;93544.69;;;27.59;54.00
20111;BME280;10216;42.658;23.248;2022-09-01T09:02:05;93539.13;;;28.00;52.89
20111;BME280;10216;42.658;23.248;2022-09-01T09:10:09;93545.50;;;29.75;48.92
20111;BME280;10216;42.658;23.248;2022-09-01T09:18:09;93535.00;;;31.55;44.39
20111;BME280;10216;42.658;23.248;2022-09-01T09:20:37;93531.16;;;31.74;43.32
20111;BME280;10216;42.658;23.248;2022-09-01T09:23:22;93526.97;;;31.96;42.30
20111;BME280;10216;42.658;23.248;2022-09-01T09:25:48;93534.72;;;31.92;42.59
20111;BME280;10216;42.658;23.248;2022-09-01T09:28:15;93526.00;;;32.36;41.16
20111;BME280;10216;42.658;23.248;2022-09-01T09:30:40;93530.88;;;33.44;40.23
20111;BME280;10216;42.658;23.248;2022-09-01T09:33:06;93528.47;;;34.08;38.97
20111;BME280;10216;42.658;23.248;2022-09-01T09:35:42;93530.19;;;34.04;38.97
20111;BME280;10216;42.658;23.248;2022-09-01T09:40:56;93524.84;;;34.30;38.33
20111;BME280;10216;42.658;23.248;2022-09-01T09:43:23;93521.97;;;34.78;37.79
20111;BME280;10216;42.658;23.248;2022-09-01T09:45:49;93526.19;;;35.55;36.54
20111;BME280;10216;42.658;23.248;2022-09-01T09:48:30;93523.78;;;35.62;34.49
20111;BME280;10216;42.658;23.248;2022-09-01T09:51:14;93525.19;;;36.30;34.71
20111;BME280;10216;42.658;23.248;2022-09-01T09:53:40;93518.00;;;37.00;34.24
20111;BME280;10216;42.658;23.248;2022-09-01T09:58:43;93512.56;;;37.09;31.57
20111;BME280;10216;42.658;23.248;2022-09-01T10:03:50;93517.69;;;37.50;32.18
20111;BME280;10216;42.658;23.248;2022-09-01T10:06:35;93507.97;;;37.34;33.59
20111;BME280;10216;42.658;23.248;2022-09-01T10:09:05;93506.44;;;38.09;31.96
20111;BME280;10216;42.658;23.248;2022-09-01T10:11:37;93505.13;;;37.91;31.88
20111;BME280;10216;42.658;23.248;2022-09-01T10:14:06;93517.69;;;38.43;32.30
20111;BME280;10216;42.658;23.248;2022-09-01T10:16:37;93516.59;;;38.87;32.65
20111;BME280;10216;42.658;23.248;2022-09-01T10:19:06;93506.28;;;38.89;31.27
20111;BME280;10216;42.658;23.248;2022-09-01T10:21:41;93496.72;;;38.05;31.34
20111;BME280;10216;42.658;23.248;2022-09-01T10:24:24;93492.28;;;37.84;32.87
20111;BME280;10216;42.658;23.248;2022-09-01T10:26:54;93495.25;;;38.07;32.76
20111;BME280;10216;42.658;23.248;2022-09-01T10:29:27;93490.00;;;38.39;31.75
20111;BME280;10216;42.658;23.248;2022-09-01T10:31:55;93493.28;;;39.07;31.90
20111;BME280;10216;42.658;23.248;2022-09-01T10:34:21;93494.56;;;38.82;29.79
20111;BME280;10216;42.658;23.248;2022-09-01T10:36:48;93496.94;;;38.99;31.34
20111;BME280;10216;42.658;23.248;2022-09-01T10:39:17;93495.97;;;39.23;30.63
20111;BME280;10216;42.658;23.248;2022-09-01T10:41:49;93493.78;;;39.44;30.23
20111;BME280;10216;42.658;23.248;2022-09-01T10:45:16;93488.66;;;40.28;28.20
20111;BME280;10216;42.658;23.248;2022-09-01T10:47:35;93474.16;;;39.78;28.80
20111;BME280;10216;42.658;23.248;2022-09-01T10:55:40;93473.53;;;39.15;31.32
20111;BME280;10216;42.658;23.248;2022-09-01T11:00:48;93462.97;;;37.51;32.10
20111;BME280;10216;42.658;23.248;2022-09-01T11:03:32;93459.88;;;37.01;33.63
20111;BME280;10216;42.658;23.248;2022-09-01T11:06:04;93468.56;;;36.73;33.07
20111;BME280;10216;42.658;23.248;2022-09-01T11:18:52;93448.25;;;34.56;36.08
20111;BME280;10216;42.658;23.248;2022-09-01T11:21:27;93447.50;;;34.47;35.81
20111;BME280;10216;42.658;23.248;2022-09-01T11:27:05;93441.25;;;34.43;34.88
20111;BME280;10216;42.658;23.248;2022-09-01T11:29:50;93441.25;;;35.10;34.30
20111;BME280;10216;42.658;23.248;2022-09-01T11:32:18;93435.91;;;34.81;36.78
20111;BME280;10216;42.658;23.248;2022-09-01T11:34:44;93418.06;;;35.32;34.31
20111;BME280;10216;42.658;23.248;2022-09-01T11:37:19;93425.97;;;37.97;33.64
20111;BME280;10216;42.658;23.248;2022-09-01T11:39:52;93422.69;;;39.96;30.29
20111;BME280;10216;42.658;23.248;2022-09-01T11:42:24;93419.41;;;40.93;31.87
20111;BME280;10216;42.658;23.248;2022-09-01T11:45:05;93422.50;;;41.45;27.43
20111;BME280;10216;42.658;23.248;2022-09-01T11:47:38;93427.25;;;42.48;29.36
20111;BME280;10216;42.658;23.248;2022-09-01T11:53:03;93430.13;;;42.29;27.46
20111;BME280;10216;42.658;23.248;2022-09-01T11:55:39;93431.34;;;43.19;25.52
20111;BME280;10216;42.658;23.248;2022-09-01T11:58:30;93432.22;;;43.34;25.88
20111;BME280;10216;42.658;23.248;2022-09-01T12:01:13;93421.88;;;42.96;26.92
20111;BME280;10216;42.658;23.248;2022-09-01T12:03:38;93415.22;;;43.37;26.32
20111;BME280;10216;42.658;23.248;2022-09-01T12:06:07;93413.00;;;42.95;26.21
20111;BME280;10216;42.658;23.248;2022-09-01T12:08:39;93412.69;;;42.60;25.29
20111;BME280;10216;42.658;23.248;2022-09-01T12:11:07;93410.91;;;42.74;25.84
20111;BME280;10216;42.658;23.248;2022-09-01T12:13:36;93417.09;;;42.38;26.85
20111;BME280;10216;42.658;23.248;2022-09-01T12:16:06;93404.19;;;41.87;26.23
20111;BME280;10216;42.658;23.248;2022-09-01T12:18:36;93401.75;;;40.96;27.99
20111;BME280;10216;42.658;23.248;2022-09-01T12:21:06;93403.00;;;41.28;28.80
20111;BME280;10216;42.658;23.248;2022-09-01T12:23:36;93403.13;;;41.95;27.15
20111;BME280;10216;42.658;23.248;2022-09-01T12:26:07;93398.56;;;41.99;27.79
20111;BME280;10216;42.658;23.248;2022-09-01T12:28:34;93391.19;;;40.38;28.71
20111;BME280;10216;42.658;23.248;2022-09-01T12:31:02;93392.25;;;40.56;28.17
20111;BME280;10216;42.658;23.248;2022-09-01T12:33:31;93384.72;;;39.62;29.66
20111;BME280;10216;42.658;23.248;2022-09-01T12:36:14;93384.59;;;38.26;30.94
20111;BME280;10216;42.658;23.248;2022-09-01T12:38:41;93381.84;;;37.27;33.35
20111;BME280;10216;42.658;23.248;2022-09-01T12:41:26;93382.19;;;36.40;33.41
20111;BME280;10216;42.658;23.248;2022-09-01T12:43:56;93377.03;;;35.57;34.59
20111;BME280;10216;42.658;23.248;2022-09-01T12:46:44;93376.00;;;34.70;36.75
20111;BME280;10216;42.658;23.248;2022-09-01T12:49:22;93367.31;;;33.97;38.00
20111;BME280;10216;42.658;23.248;2022-09-01T12:52:04;93370.03;;;33.45;38.41
20111;BME280;10216;42.658;23.248;2022-09-01T12:54:29;93372.97;;;33.87;39.65
20111;BME280;10216;42.658;23.248;2022-09-01T12:56:57;93371.56;;;35.03;37.76
20111;BME280;10216;42.658;23.248;2022-09-01T12:59:25;93365.88;;;35.55;35.89
20111;BME280;10216;42.658;23.248;2022-09-01T13:01:51;93373.06;;;36.41;35.88
20111;BME280;10216;42.658;23.248;2022-09-01T13:06:54;93369.41;;;38.02;33.72
20111;BME280;10216;42.658;23.248;2022-09-01T13:09:20;93365.00;;;40.16;32.71
20111;BME280;10216;42.658;23.248;2022-09-01T13:11:46;93371.38;;;41.52;30.09
20111;BME280;10216;42.658;23.248;2022-09-01T13:14:12;93363.16;;;41.41;29.27
20111;BME280;10216;42.658;23.248;2022-09-01T13:16:37;93366.41;;;40.29;30.48
20111;BME280;10216;42.658;23.248;2022-09-01T13:19:03;93356.75;;;38.31;32.78
20111;BME280;10216;42.658;23.248;2022-09-01T13:21:32;93341.63;;;36.87;33.96
20111;BME280;10216;42.658;23.248;2022-09-01T13:24:02;93340.91;;;35.72;36.29
20111;BME280;10216;42.658;23.248;2022-09-01T13:26:29;93337.72;;;34.36;37.69
20111;BME280;10216;42.658;23.248;2022-09-01T13:28:56;93338.09;;;34.26;38.51
20111;BME280;10216;42.658;23.248;2022-09-01T13:31:22;93334.13;;;34.62;38.24
20111;BME280;10216;42.658;23.248;2022-09-01T13:33:47;93341.38;;;34.23;38.16
20111;BME280;10216;42.658;23.248;2022-09-01T13:36:13;93334.44;;;34.31;38.85
20111;BME280;10216;42.658;23.248;2022-09-01T13:38:39;93340.53;;;34.99;37.29
20111;BME280;10216;42.658;23.248;2022-09-01T13:41:05;93344.56;;;34.46;38.50
20111;BME280;10216;42.658;23.248;2022-09-01T13:43:31;93346.19;;;33.83;38.87
20111;BME280;10216;42.658;23.248;2022-09-01T13:45:58;93352.75;;;33.00;39.88
20111;BME280;10216;42.658;23.248;2022-09-01T13:48:23;93352.66;;;32.48;41.23
20111;BME280;10216;42.658;23.248;2022-09-01T13:50:50;93344.81;;;31.81;42.76